Weather observations for the past three days for
Dublin, W H 'Bud' Barron Airport
| Date | Time (edt) | Wind (kph) | Vis. (km) | Weather | Sky Cond. | Temperature (ºC) | Relative Humidity | Wind Chill (°C) | Heat Index (°C) | Pressure | Precipitation (cm) | ||||||
|---|---|---|---|---|---|---|---|---|---|---|---|---|---|---|---|---|---|
| Air | Dwpt | 6 hour | altimeter (cm) | sea level (mb) | 1 hr | 3 hr | 6 hr | ||||||||||
| Max. | Min. | ||||||||||||||||
| 04 | 00:15 | Calm | 14.48 | Fair | CLR | 7.9 | 7.9 | 100% | 76.43 | 0.0 | |||||||
| 03 | 23:55 | Calm | 14.48 | Fair | CLR | 7.8 | 7.8 | 100% | 76.43 | 0.0 | |||||||
| 03 | 23:35 | Calm | 16.09 | Fair | CLR | 8.6 | 8.6 | 100% | 76.43 | 0.0 | |||||||
| 03 | 23:15 | Calm | 14.48 | Fair | CLR | 8.4 | 8.4 | 100% | 76.43 | 0.0 | |||||||
| 03 | 22:55 | Calm | 14.48 | Fair | CLR | 9.1 | 9.1 | 100% | 76.4 | 0.0 | |||||||
| 03 | 22:35 | Calm | 14.48 | Fair | CLR | 9.4 | 9.4 | 100% | 76.4 | 0.0 | |||||||
| 03 | 22:15 | Calm | 16.09 | Fair | CLR | 9.2 | 9.2 | 100% | 76.38 | 0.0 | |||||||
| 03 | 21:55 | Calm | 16.09 | Fair | CLR | 9.9 | 9.9 | 100% | 76.35 | 0.0 | |||||||
| 03 | 21:35 | Calm | 14.48 | Fair | CLR | 10.2 | 10.2 | 100% | 76.35 | 0.0 | |||||||
| 03 | 21:15 | Calm | 14.48 | Fair | CLR | 10.9 | 10.8 | 99% | 76.33 | 0.0 | |||||||
| 03 | 20:55 | Calm | 14.48 | Fair | CLR | 11.2 | 10.9 | 98% | 76.33 | 0.0 | |||||||
| 03 | 20:35 | Calm | 12.87 | Fair | CLR | 13 | 11.5 | 91% | 76.33 | 0.0 | |||||||
| 03 | 20:15 | Calm | 14.48 | Fair | CLR | 15.3 | 11.1 | 76% | 76.3 | 0.0 | |||||||
| 03 | 19:55 | W 6 | 14.48 | Fair | CLR | 17.8 | 9.5 | 23.6 | 17.8 | 58% | 76.28 | 0.0 | |||||
| 03 | 19:35 | W 6 | 16.09 | Fair | CLR | 20 | 7.2 | 44% | 76.28 | 0.0 | |||||||
| 03 | 19:15 | W 6 | 16.09 | Fair | CLR | 21.1 | 6.2 | 38% | 76.3 | 0.0 | |||||||
| 03 | 18:55 | Calm | 16.09 | Fair | CLR | 22 | 4.3 | 32% | 76.3 | 0.0 | |||||||
| 03 | 18:35 | Calm | 16.09 | Fair | CLR | 22.4 | 5.5 | 33% | 76.3 | 0.0 | |||||||
| 03 | 18:15 | W 9 | 16.09 | Fair | CLR | 22.6 | 4.1 | 30% | 76.3 | 0.0 | |||||||
| 03 | 17:55 | W 11 | 16.09 | Fair | CLR | 22.7 | 4.6 | 31% | 76.33 | 0.0 | |||||||
| 03 | 17:35 | Vrbl 6 | 16.09 | Fair | CLR | 22.7 | 4.7 | 31% | 76.33 | 0.0 | |||||||
| 03 | 17:15 | Vrbl 6 | 16.09 | Fair | CLR | 23.1 | 4.7 | 30% | 76.33 | 0.0 | |||||||
| 03 | 16:55 | W 9 | 16.09 | Fair | CLR | 23.6 | 4.8 | 30% | 76.33 | 0.0 | |||||||
| 03 | 16:35 | Vrbl 9 | 16.09 | Fair | CLR | 22.8 | 4.1 | 30% | 76.33 | 0.0 | |||||||
| 03 | 16:15 | Vrbl 7 | 16.09 | Fair | CLR | 23 | 4.5 | 30% | 76.35 | 0.0 | |||||||
| 03 | 15:55 | NW 19 | 16.09 | Fair | CLR | 23 | 5.1 | 31% | 76.38 | 0.0 | |||||||
| 03 | 15:35 | S 7 | 16.09 | Fair | CLR | 22.1 | 5.9 | 35% | 76.38 | 0.0 | |||||||
| 03 | 14:55 | Vrbl 11 | 16.09 | A Few Clouds | FEW380 | 22.1 | 5.6 | 34% | 76.45 | 0.0 | |||||||
| 03 | 14:35 | NW 13 | 16.09 | Fair | CLR | 22.2 | 6.6 | 37% | 76.45 | 0.0 | |||||||
| 03 | 14:15 | Vrbl 7 | 16.09 | A Few Clouds | FEW330 | 21.3 | 4.7 | 34% | 76.48 | 0.0 | |||||||
| 03 | 13:55 | Vrbl 6 | 16.09 | A Few Clouds | FEW330 | 21.1 | 5.6 | 21.8 | 9.9 | 37% | 76.5 | 0.0 | |||||
| 03 | 13:35 | Vrbl 7 | 16.09 | A Few Clouds | FEW280 | 20.9 | 4.7 | 35% | 76.5 | 0.0 | |||||||
| 03 | 13:15 | N 9 | 16.09 | A Few Clouds | FEW360 | 20.5 | 4.9 | 36% | 76.53 | 0.0 | |||||||
| 03 | 12:55 | Calm | 16.09 | A Few Clouds | FEW310 | 20.1 | 4.5 | 36% | 76.56 | 0.0 | |||||||
| 03 | 12:35 | NW 9 | 16.09 | Fair | CLR | 21.1 | 5.8 | 37% | 76.56 | 0.0 | |||||||
| 03 | 12:15 | Vrbl 7 | 16.09 | Fair | CLR | 20.6 | 5.6 | 38% | 76.58 | 0.0 | |||||||
| 03 | 11:55 | Vrbl 7 | 16.09 | Fair | CLR | 20.4 | 5.6 | 38% | 76.58 | 0.0 | |||||||
| 03 | 11:35 | Vrbl 6 | 16.09 | Fair | CLR | 19.1 | 4.8 | 39% | 76.58 | 0.0 | |||||||
| 03 | 11:15 | Calm | 16.09 | Fair | CLR | 19.3 | 6 | 42% | 76.58 | 0.0 | |||||||
| 03 | 10:55 | Calm | 16.09 | Fair | CLR | 18.4 | 7.5 | 49% | 76.58 | 0.0 | |||||||
| 03 | 10:35 | NW 9 | 16.09 | Fair | CLR | 17.8 | 6.8 | 49% | 76.58 | 0.0 | |||||||
| 03 | 10:15 | Vrbl 6 | 16.09 | Fair | CLR | 17 | 8.6 | 58% | 76.58 | 0.0 | |||||||
| 03 | 09:55 | Calm | 16.09 | Fair | CLR | 15.9 | 9.7 | 67% | 76.58 | 0.0 | |||||||
| 03 | 09:35 | Calm | 16.09 | Fair | CLR | 14.7 | 10.2 | 75% | 76.58 | 0.0 | |||||||
| 03 | 09:15 | NW 6 | 12.87 | Fair | CLR | 13.6 | 11.3 | 86% | 76.58 | 0.0 | |||||||
| 03 | 08:55 | Calm | 8.05 | Fog/Mist | CLR | 12.1 | 11.2 | 94% | 76.56 | 0.0 | |||||||
| 03 | 08:35 | Calm | 4.83 | Fog/Mist | CLR | 10.9 | 10.9 | 100% | 76.56 | 0.0 | |||||||
| 03 | 08:15 | Calm | 2.82 | Fog/Mist | CLR | 10.3 | 10.3 | 100% | 76.53 | 0.0 | |||||||
| 03 | 07:55 | Calm | 0.80 | Fog | VV001 | 10 | 10 | 12.2 | 9.1 | 100% | 76.5 | 0.0 | |||||
| 03 | 07:35 | Calm | 0.40 | Fog | VV001 | 9.4 | 9.4 | 100% | 76.48 | 0.0 | |||||||
| 03 | 07:15 | Calm | 0.24 | Fog | CLR | 9.1 | 9.1 | 100% | 76.45 | 0.0 | |||||||
| 03 | 06:55 | Calm | 0.24 | Fog | VV002 | 9.5 | 9.5 | 100% | 76.45 | 0.0 | |||||||
| 03 | 06:35 | Calm | 0.40 | Fog | VV002 | 9.9 | 9.9 | 100% | 76.45 | 0.0 | |||||||
| 03 | 06:15 | Calm | 0.40 | Fog | VV002 | 9.8 | 9.8 | 100% | 76.43 | 0.0 | |||||||
| 03 | 05:55 | Calm | 0.40 | Fog | VV002 | 9.8 | 9.8 | 100% | 76.4 | 0.0 | |||||||
| 03 | 05:35 | Calm | 0.40 | Fog | VV002 | 10 | 10 | 100% | 76.4 | 0.0 | |||||||
| 03 | 05:15 | Calm | 0.40 | Fog | VV002 | 10.1 | 10.1 | 100% | 76.4 | 0.0 | |||||||
| 03 | 04:55 | Calm | 0.40 | Fog | CLR | 10.7 | 10.7 | 100% | 76.4 | 0.0 | |||||||
| 03 | 04:35 | Calm | 0.40 | Fog | VV002 | 10.8 | 10.8 | 100% | 76.4 | 0.0 | |||||||
| 03 | 04:15 | Calm | 0.40 | Light Drizzle Fog | VV002 | 10.8 | 10.8 | 100% | 76.38 | 0.0 | |||||||
| 03 | 03:55 | Calm | 0.40 | Fog | VV002 | 11 | 11 | 100% | 76.35 | 0.0 | |||||||
| 03 | 03:35 | Calm | 0.40 | Fog | VV002 | 11.2 | 11.2 | 100% | 76.35 | 0.0 | |||||||
| 03 | 03:15 | Calm | 0.40 | Fog | VV002 | 11 | 11 | 100% | 76.33 | 0.0 | |||||||
| 03 | 02:55 | Calm | 0.40 | Fog | VV002 | 11.6 | 11.6 | 100% | 76.3 | 0.0 | |||||||
| 03 | 02:35 | Calm | 0.40 | Fog | VV002 | 11.9 | 11.9 | 100% | 76.3 | 0.0 | |||||||
| 03 | 02:15 | Calm | 1.21 | Fog/Mist | VV002 | 12.1 | 12.1 | 100% | 76.3 | 0.0 | |||||||
| 03 | 01:55 | Calm | 12.87 | Mostly Cloudy | BKN003 | 11.6 | 11.6 | 15.7 | 10.3 | 100% | 76.3 | 0.0 | |||||
| 03 | 01:35 | Calm | 12.87 | Mostly Cloudy | BKN003 | 11 | 11 | 100% | 76.3 | 0.0 | |||||||
| 03 | 01:15 | Calm | 12.87 | Mostly Cloudy | BKN004 | 11.2 | 11.2 | 100% | 76.28 | 0.0 | |||||||
| 03 | 00:55 | Calm | 14.48 | Partly Cloudy | SCT006 | 10.4 | 10.4 | 100% | 76.28 | 0.0 | |||||||
| 03 | 00:35 | NE 6 | 16.09 | Partly Cloudy | SCT006 | 11.7 | 11.7 | 100% | 76.28 | 0.0 | |||||||
| 03 | 00:15 | N 6 | 16.09 | Fair | CLR | 12.3 | 9.3 | 82% | 76.25 | 0.0 | |||||||
| 02 | 23:55 | Vrbl 7 | 16.09 | Fair | CLR | 12.8 | 8.4 | 75% | 76.23 | 0.0 | |||||||
| 02 | 23:35 | Calm | 16.09 | Fair | CLR | 13.2 | 8.4 | 73% | 76.2 | 0.0 | |||||||
| 02 | 23:15 | NW 9 | 16.09 | Fair | CLR | 13.4 | 8.9 | 74% | 76.2 | 0.0 | |||||||
| 02 | 22:55 | NW 7 | 16.09 | Fair | CLR | 13.3 | 10.9 | 86% | 76.17 | 0.0 | |||||||
| 02 | 22:35 | NW 7 | 16.09 | A Few Clouds | FEW075 | 13 | 11.9 | 93% | 76.17 | 0.0 | |||||||
| 02 | 22:15 | NW 6 | 16.09 | Partly Cloudy | SCT075 | 13.5 | 13 | 97% | 76.15 | 0.0 | |||||||
| 02 | 21:55 | Calm | 14.48 | Fair | CLR | 13.4 | 13.4 | 100% | 76.12 | 0.0 | |||||||
| 02 | 21:35 | Calm | 16.09 | A Few Clouds | FEW045 | 14.1 | 14.1 | 100% | 76.1 | 0.0 | |||||||
| 02 | 21:15 | Calm | 14.48 | Partly Cloudy | FEW045 SCT065 | 14.4 | 14.4 | 100% | 76.07 | 0.0 | |||||||
| 02 | 20:55 | Calm | 14.48 | A Few Clouds | FEW070 | 14.5 | 14.5 | 100% | 76 | 0.0 | |||||||
| 02 | 20:35 | Calm | 14.48 | Fair | CLR | 14 | 14 | 100% | 75.97 | 0.0 | |||||||
| 02 | 20:15 | Calm | 14.48 | Fair | CLR | 15.2 | 15.2 | 100% | 75.97 | 0.0 | |||||||
| 02 | 19:55 | Calm | 14.48 | Fair | CLR | 17 | 16 | 20 | 15.9 | 94% | 75.92 | 0.0 | 1.98 | ||||
| 02 | 19:35 | Calm | 14.48 | A Few Clouds | FEW050 | 17.7 | 15.9 | 89% | 75.92 | 0.0 | |||||||
| 02 | 19:15 | S 6 | 14.48 | Fair | CLR | 17.8 | 15.6 | 87% | 75.92 | 0.0 | |||||||
| 02 | 18:55 | S 6 | 14.48 | Fair | CLR | 17.9 | 15.8 | 88% | 75.92 | 0.0 | 0.05 | ||||||
| 02 | 18:35 | S 6 | 14.48 | A Few Clouds | FEW030 | 18.3 | 15.8 | 85% | 75.92 | 0.0 | 0.05 | ||||||
| 02 | 18:15 | SE 6 | 14.48 | A Few Clouds | FEW030 | 19.3 | 16.1 | 82% | 75.9 | 0.0 | 0.05 | ||||||
| 02 | 17:55 | Calm | 16.09 | A Few Clouds | FEW085 | 19.8 | 15.8 | 78% | 75.87 | 0.0 | 0.33 | ||||||
| 02 | 17:35 | Calm | 16.09 | Fair | CLR | 18.3 | 15.6 | 84% | 75.9 | 0.0 | 0.28 | ||||||
| 02 | 17:15 | S 6 | 16.09 | Fair | CLR | 19.9 | 15.9 | 78% | 75.9 | 0.0 | 0.18 | ||||||
| 02 | 16:55 | Calm | 16.09 | Fair | CLR | 18.7 | 15.2 | 80% | 75.9 | 0.0 | 0.53 | 1.6 | |||||
| 02 | 16:35 | Calm | 16.09 | Fair | CLR | 19 | 15.3 | 79% | 75.9 | 0.0 | 0.41 | ||||||
| 02 | 16:15 | Calm | 16.09 | Fair | CLR | 19.5 | 16.1 | 81% | 75.9 | 0.0 | 0.25 | ||||||
| 02 | 15:55 | Calm | 16.09 | Fair | CLR | 18.3 | 15.2 | 82% | 75.92 | 0.0 | 0.58 | ||||||
| 02 | 15:35 | NW 6 | 16.09 | Fair | CLR | 18.1 | 15.6 | 85% | 75.92 | 0.0 | 0.43 | ||||||
| 02 | 15:15 | Calm | 16.09 | Fair | CLR | 17.9 | 16.3 | 90% | 75.92 | 0.0 | 0.25 | ||||||
| 02 | 14:55 | Vrbl 6 | 16.09 | Fair | CLR | 16.7 | 15.1 | 90% | 75.95 | 0.0 | 0.48 | ||||||
| 02 | 14:35 | Vrbl 6 | 16.09 | A Few Clouds | FEW013 | 16.7 | 15.5 | 93% | 75.95 | 0.0 | 0.36 | ||||||
| 02 | 14:15 | Vrbl 6 | 16.09 | Partly Cloudy | SCT012 | 16.3 | 15.7 | 96% | 75.95 | 0.0 | 0.2 | ||||||
| 02 | 13:55 | NE 6 | 16.09 | A Few Clouds | FEW010 | 15.7 | 15.7 | 15.7 | 11.6 | 100% | 75.95 | 0.0 | 0.36 | 0.58 | |||
| 02 | 13:35 | Vrbl 6 | 16.09 | Fair | CLR | 15.2 | 15.1 | 99% | 75.95 | 0.0 | 0.25 | ||||||
| 02 | 13:15 | Calm | 14.48 | Fair | CLR | 15.1 | 15.1 | 100% | 75.95 | 0.0 | 0.13 | ||||||
| 02 | 12:55 | Calm | 14.48 | A Few Clouds | FEW009 | 14.7 | 14.7 | 100% | 75.97 | 0.0 | 0.13 | ||||||
| 02 | 12:35 | N 6 | 11.27 | Light Rain | FEW009 SCT043 | 14.6 | 14.6 | 100% | 75.95 | 0.0 | 0.08 | ||||||
| 02 | 12:15 | Calm | 9.66 | Light Rain Fog/Mist | FEW044 | 14.3 | 14.3 | 100% | 75.95 | 0.0 | 0.03 | ||||||
| 02 | 11:55 | Vrbl 6 | 9.66 | Light Rain Fog/Mist | FEW006 | 14.3 | 14.3 | 100% | 75.95 | 0.0 | 0.05 | ||||||
| 02 | 11:35 | Vrbl 7 | 9.66 | Fog/Mist | CLR | 14.3 | 14.3 | 100% | 75.92 | 0.0 | 0.03 | ||||||
| 02 | 11:15 | Calm | 6.44 | Light Rain Fog/Mist | FEW041 | 13.9 | 13.9 | 100% | 76 | 0.0 | 0.03 | ||||||
| 02 | 10:55 | Calm | 11.27 | Light Rain | CLR | 13.4 | 13.4 | 100% | 75.97 | 0.0 | 0.03 | 0.05 | |||||
| 02 | 10:35 | Vrbl 7 | 9.66 | Light Rain Fog/Mist | FEW037 | 13.4 | 13.4 | 100% | 75.92 | 0.0 | 0.03 | ||||||
| 02 | 10:15 | Calm | 9.66 | Light Rain Fog/Mist | BKN037 | 13.2 | 13.2 | 100% | 75.92 | 0.0 | 0.03 | ||||||
| 02 | 09:55 | Calm | 9.66 | Light Rain Fog/Mist | FEW036 | 12.8 | 12.8 | 100% | 75.92 | 0.0 | 0.03 | ||||||
| 02 | 09:35 | NW 6 | 9.66 | Light Rain Fog/Mist | FEW034 | 12.4 | 12.4 | 100% | 75.97 | 0.0 | 0.03 | ||||||
| 02 | 09:15 | NW 6 | 6.44 | Light Rain Fog/Mist | SCT034 | 11.9 | 11.9 | 100% | 75.97 | 0.0 | 0.03 | ||||||
| 02 | 08:55 | Calm | 4.83 | Light Rain Fog/Mist | FEW029 | 11.9 | 11.9 | 100% | 76 | 0.0 | |||||||
| 02 | 08:35 | Calm | 9.66 | Light Rain Fog/Mist | FEW029 | 11.9 | 11.9 | 100% | 75.97 | 0.0 | |||||||
| 02 | 08:15 | Calm | 11.27 | Light Rain | FEW025 | 11.7 | 11.7 | 100% | 75.95 | 0.0 | |||||||
| 02 | 07:55 | Vrbl 6 | 8.05 | Light Rain Fog/Mist | FEW025 SCT031 | 11.6 | 11.6 | 13.4 | 10.8 | 100% | 75.95 | 0.0 | 0.03 | 0.03 | |||
| 02 | 07:35 | Calm | 6.44 | Light Rain Fog/Mist | SCT029 | 11.6 | 11.6 | 100% | 75.95 | 0.0 | 0.03 | ||||||
| 02 | 07:15 | NW 6 | 8.05 | Light Rain Fog/Mist | FEW028 | 11.6 | 11.6 | 100% | 75.92 | 0.0 | |||||||
| 02 | 06:55 | Vrbl 6 | 11.27 | Light Rain | SCT026 | 11.4 | 11.4 | 100% | 75.87 | 0.0 | |||||||
| 02 | 06:35 | Calm | 12.87 | Light Rain | BKN026 | 11.4 | 11.4 | 100% | 75.82 | 0.0 | |||||||
| 02 | 06:15 | NE 7 | 11.27 | Light Rain | SCT026 | 11.3 | 11.3 | 100% | 75.84 | 0.0 | |||||||
| 02 | 05:55 | Calm | 14.48 | Light Rain | SCT027 | 11.2 | 11.2 | 100% | 75.87 | 0.0 | |||||||
| 02 | 05:35 | N 6 | 12.87 | Mostly Cloudy | BKN027 | 11.1 | 11.1 | 100% | 75.87 | 0.0 | |||||||
| 02 | 05:15 | Calm | 11.27 | Light Rain | BKN026 | 11 | 11 | 100% | 75.9 | 0.0 | |||||||
| 02 | 04:55 | Vrbl 6 | 8.05 | Light Rain Fog/Mist | SCT025 | 10.8 | 10.8 | 100% | 75.92 | 0.0 | |||||||
| 02 | 04:35 | Calm | 6.44 | Light Rain Fog/Mist | BKN024 | 10.8 | 10.8 | 100% | 75.92 | 0.0 | |||||||
| 02 | 04:15 | NW 7 | 6.44 | Light Rain Fog/Mist | BKN024 BKN095 | 11 | 11 | 100% | 75.95 | 0.0 | |||||||
| 02 | 03:55 | Calm | 8.05 | Light Rain Fog/Mist | FEW026 SCT060 SCT095 | 11.1 | 11.1 | 100% | 75.92 | 0.0 | |||||||
| 02 | 03:35 | NE 6 | 8.05 | Light Rain Fog/Mist | FEW060 | 11.3 | 11.3 | 100% | 75.92 | 0.0 | |||||||
| 02 | 03:15 | Calm | 4.83 | Light Rain Fog/Mist | FEW055 SCT095 | 11.3 | 11.3 | 100% | 75.97 | 0.0 | |||||||
| 02 | 02:55 | NW 6 | 9.66 | Light Rain Fog/Mist | FEW055 BKN095 | 11.8 | 11.6 | 99% | 75.97 | 0.0 | |||||||
| 02 | 02:35 | Calm | 9.66 | Light Rain Fog/Mist | FEW055 SCT095 | 12.3 | 12.1 | 99% | 76 | 0.0 | |||||||
| 02 | 02:15 | NW 9 | 8.05 | Light Rain Fog/Mist | CLR | 12.8 | 12.8 | 100% | 76 | 0.0 | |||||||
| 02 | 01:55 | Calm | 9.66 | Light Rain Fog/Mist | FEW095 | 13.8 | 13.8 | 18 | 13.8 | 100% | 76.05 | 0.0 | |||||
| 02 | 01:35 | Calm | 8.05 | Light Rain Fog/Mist | FEW095 | 14 | 14 | 100% | 76.02 | 0.0 | |||||||
| 02 | 01:15 | NW 6 | 11.27 | Light Rain | FEW095 | 14.3 | 14.3 | 100% | 76.05 | 0.0 | |||||||
| 02 | 00:55 | Calm | 11.27 | Light Rain | BKN095 | 14.7 | 14.7 | 100% | 76 | 0.0 | |||||||
| 02 | 00:35 | Calm | 11.27 | Light Rain | SCT100 | 15 | 15 | 100% | 76 | 0.0 | |||||||
| 01 | 23:55 | Calm | 11.27 | Light Rain | CLR | 15.6 | 15.6 | 100% | 76.02 | 0.0 | |||||||
| 01 | 23:35 | Calm | 11.27 | Light Rain | CLR | 15.7 | 15.7 | 100% | 76 | 0.0 | |||||||
| 01 | 23:15 | NW 6 | 12.87 | A Few Clouds | FEW034 | 15.7 | 15.7 | 100% | 76.02 | 0.0 | |||||||
| 01 | 22:55 | Calm | 11.27 | Light Rain | CLR | 16 | 16 | 100% | 76 | 0.0 | |||||||
| 01 | 22:35 | W 6 | 11.27 | Rain | CLR | 16 | 16 | 100% | 76 | 0.0 | |||||||
| 01 | 22:15 | Calm | 12.87 | Light Rain | CLR | 16.2 | 16.2 | 100% | 75.92 | 0.0 | |||||||
| 01 | 21:55 | Calm | 12.87 | Light Rain | FEW028 BKN110 | 16.1 | 16.1 | 100% | 75.97 | 0.0 | |||||||
| 01 | 21:35 | Calm | 12.87 | Partly Cloudy | SCT110 | 16.2 | 16.2 | 100% | 75.97 | 0.0 | |||||||
| 01 | 21:15 | Calm | 14.48 | A Few Clouds | FEW100 | 16.2 | 16.2 | 100% | 75.97 | 0.0 | |||||||
| 01 | 20:55 | Calm | 12.87 | Light Rain | BKN110 | 16.3 | 16.3 | 100% | 75.97 | 0.0 | |||||||
| 01 | 20:35 | Calm | 16.09 | A Few Clouds | FEW100 | 16.4 | 16.3 | 99% | 75.95 | 0.0 | |||||||
| 01 | 20:15 | Calm | 14.48 | Partly Cloudy | FEW075 SCT120 | 17.7 | 15.8 | 89% | 75.97 | 0.0 | |||||||
| 01 | 19:55 | NW 6 | 12.87 | Mostly Cloudy | FEW080 SCT120 BKN150 BKN170 | 18.4 | 15 | 23.1 | 18.4 | 81% | 75.95 | 0.0 | |||||
| 01 | 19:35 | NW 7 | 12.87 | Partly Cloudy | SCT140 SCT170 | 18.8 | 15.3 | 80% | 75.92 | 0.0 | |||||||
| 01 | 19:15 | N 6 | 12.87 | Fair | CLR | 19.3 | 14.8 | 75% | 75.9 | 0.0 | |||||||
| 01 | 18:55 | N 6 | 12.87 | Fair | CLR | 19.7 | 15.1 | 75% | 75.87 | 0.0 | |||||||
| 01 | 18:35 | Calm | 12.87 | A Few Clouds | FEW100 | 20 | 15.2 | 74% | 75.9 | 0.0 | |||||||
| 01 | 18:15 | N 9 | 12.87 | Mostly Cloudy | BKN095 | 20 | 14.8 | 72% | 75.9 | 0.0 | |||||||
| 01 | 17:55 | Vrbl 7 | 12.87 | Mostly Cloudy | FEW035 BKN100 | 20.8 | 15.3 | 71% | 75.9 | 0.0 | |||||||
| 01 | 17:35 | Calm | 12.87 | Light Rain | SCT035 BKN100 | 20.9 | 15.9 | 73% | 75.9 | 0.0 | |||||||
| 01 | 17:15 | NW 6 | 12.87 | Fair | CLR | 21.2 | 15.9 | 72% | 75.92 | 0.0 | |||||||
| 01 | 16:55 | W 7 | 11.27 | Fair | CLR | 21.3 | 16.3 | 73% | 75.95 | 0.0 | |||||||
| 01 | 16:35 | NW 9 | 12.87 | Light Rain | CLR | 22.1 | 15.4 | 66% | 75.95 | 0.0 | |||||||
| 01 | 16:15 | NW 7 | 12.87 | Fair | CLR | 21.7 | 14.3 | 63% | 75.95 | 0.0 | |||||||
| 01 | 15:55 | Vrbl 7 | 14.48 | Fair | CLR | 22.1 | 14.9 | 64% | 75.95 | 0.0 | |||||||
| 01 | 15:35 | NW 9 | 14.48 | Fair | CLR | 21.9 | 14.3 | 62% | 75.95 | 0.0 | |||||||
| 01 | 15:15 | NW 9 | 14.48 | Fair | CLR | 22.7 | 13.2 | 55% | 75.97 | 0.0 | |||||||
| 01 | 14:55 | Vrbl 6 | 16.09 | Fair | CLR | 22.4 | 14.5 | 61% | 76 | 0.0 | |||||||
| 01 | 14:35 | NW 7 | 14.48 | Fair | CLR | 22.1 | 14.3 | 61% | 76 | 0.0 | |||||||
| 01 | 13:55 | Vrbl 6 | 14.48 | Fair | CLR | 21.4 | 16.1 | 21.8 | 14.6 | 72% | 76.02 | 0.0 | |||||
| 01 | 13:35 | Vrbl 6 | 14.48 | Fair | CLR | 20.8 | 16.4 | 76% | 76 | 0.0 | |||||||
| 01 | 13:15 | Vrbl 7 | 14.48 | Fair | CLR | 21.1 | 16.8 | 77% | 76.02 | 0.0 | |||||||
| 01 | 12:55 | Vrbl 6 | 11.27 | A Few Clouds | FEW095 | 20.1 | 17.2 | 84% | 76.02 | 0.0 | |||||||
| 01 | 12:35 | Vrbl 6 | 14.48 | Mostly Cloudy | BKN090 | 19.6 | 17 | 85% | 76.05 | 0.0 | |||||||
| 01 | 12:15 | W 6 | 14.48 | A Few Clouds | FEW090 | 19.4 | 17.1 | 87% | 76.02 | 0.0 | |||||||
| 01 | 11:55 | Calm | 14.48 | Fair | CLR | 18.2 | 16.5 | 90% | 76.02 | 0.0 | |||||||
| 01 | 11:35 | Calm | 12.87 | Fair | CLR | 17.7 | 16.2 | 91% | 76.02 | 0.0 | |||||||
| 01 | 11:15 | Calm | 11.27 | A Few Clouds | FEW010 | 17.3 | 15.8 | 91% | 76.05 | 0.0 | |||||||
| 01 | 10:55 | Calm | 11.27 | A Few Clouds | FEW010 | 17 | 15.6 | 92% | 76.05 | 0.0 | |||||||
| 01 | 10:35 | Calm | 11.27 | Fair | CLR | 16.9 | 15.3 | 90% | 76.05 | 0.0 | |||||||
| 01 | 10:15 | NW 7 | 11.27 | Fair | CLR | 16.9 | 15.1 | 89% | 76.05 | 0.0 | |||||||
| 01 | 09:55 | NW 6 | 12.87 | A Few Clouds | FEW090 | 16.7 | 15.1 | 90% | 76.02 | 0.0 | |||||||
| 01 | 09:35 | Calm | 12.87 | A Few Clouds | FEW095 | 16.7 | 14.8 | 89% | 76.02 | 0.0 | |||||||
| 01 | 09:15 | Calm | 12.87 | A Few Clouds | FEW100 | 16.6 | 14.6 | 88% | 76 | 0.0 | |||||||
| 01 | 08:55 | NW 13 | 12.87 | Fair | CLR | 15.6 | 14.5 | 93% | 76.02 | 0.0 | |||||||
| 01 | 08:35 | Calm | 12.87 | A Few Clouds | FEW110 | 15.4 | 14.3 | 93% | 75.97 | 0.0 | |||||||
| 01 | 08:15 | Calm | 12.87 | Partly Cloudy | SCT110 | 14.9 | 13.8 | 93% | 75.95 | 0.0 | |||||||
| 01 | 07:55 | Calm | 12.87 | A Few Clouds | FEW150 | 14 | 13.6 | 16.5 | 12 | 97% | 75.95 | 0.0 | |||||
| 01 | 07:35 | Calm | 12.87 | A Few Clouds | FEW160 | 13.2 | 13.2 | 100% | 75.97 | 0.0 | |||||||
| 01 | 07:15 | Calm | 12.87 | Partly Cloudy | SCT110 | 13.3 | 13.3 | 100% | 75.95 | 0.0 | |||||||
| 01 | 06:55 | W 6 | 12.87 | Partly Cloudy | SCT120 | 13.1 | 13.1 | 100% | 75.92 | 0.0 | |||||||
| 01 | 06:35 | Calm | 16.09 | Fair | CLR | 13.1 | 13.1 | 100% | 75.9 | 0.0 | |||||||
| 01 | 06:15 | W 6 | 14.48 | Fair | CLR | 12.5 | 12.5 | 100% | 75.92 | 0.0 | |||||||
| 01 | 05:55 | Calm | 14.48 | A Few Clouds | FEW200 | 12.9 | 12 | 94% | 75.9 | 0.0 | |||||||
| 01 | 05:35 | Calm | 16.09 | Mostly Cloudy | FEW160 BKN200 | 13.9 | 12 | 88% | 75.9 | 0.0 | |||||||
| 01 | 05:15 | Calm | 16.09 | A Few Clouds | FEW160 | 13.6 | 12.4 | 93% | 75.9 | 0.0 | |||||||
| 01 | 04:55 | W 6 | 16.09 | Partly Cloudy | SCT140 | 14.1 | 12.8 | 92% | 75.9 | 0.0 | |||||||
| 01 | 04:35 | Calm | 16.09 | Mostly Cloudy | BKN140 | 14.3 | 13.3 | 94% | 75.87 | 0.0 | |||||||
| 01 | 04:15 | Calm | 16.09 | Fair | CLR | 14.4 | 13.8 | 96% | 75.87 | 0.0 | |||||||
| 01 | 03:55 | Calm | 16.09 | Partly Cloudy | SCT130 | 14.3 | 13.4 | 94% | 75.87 | 0.0 | |||||||
| 01 | 03:35 | Calm | 16.09 | A Few Clouds | FEW140 | 14.4 | 14.2 | 99% | 75.87 | 0.0 | |||||||
| 01 | 03:15 | Calm | 16.09 | Partly Cloudy | SCT140 SCT170 SCT210 | 14.8 | 14.1 | 96% | 75.87 | 0.0 | |||||||
| 01 | 02:55 | Calm | 16.09 | Fair | CLR | 15.6 | 13.8 | 89% | 75.87 | 0.0 | |||||||
| 01 | 02:35 | Calm | 16.09 | Fair | CLR | 16.1 | 13.1 | 83% | 75.9 | 0.0 | |||||||
| 01 | 02:15 | Calm | 16.09 | A Few Clouds | FEW150 | 16 | 13 | 83% | 75.9 | 0.0 | |||||||
| 01 | 01:55 | NW 6 | 16.09 | A Few Clouds | FEW170 | 16.5 | 12.6 | 21.3 | 15.1 | 78% | 75.9 | 0.0 | |||||
| 01 | 01:35 | NW 6 | 16.09 | Partly Cloudy | FEW170 SCT190 | 16.6 | 12.6 | 77% | 75.92 | 0.0 | |||||||
| 01 | 01:15 | NW 9 | 16.09 | Fair | CLR | 16.5 | 13.2 | 81% | 75.92 | 0.0 | |||||||
| 01 | 00:55 | NW 7 | 16.09 | A Few Clouds | FEW170 | 16 | 13.7 | 86% | 75.92 | 0.0 | |||||||
| Date | Time (edt) | Wind (kph) | Vis. (km) | Weather | Sky Cond. | Air | Dwpt | Max. | Min. | Relative Humidity | Wind Chill (°C) | Heat Index (°C) | altimeter (cm) | sea level (mb) | 1 hr | 3 hr | 6 hr |
| 6 hour | |||||||||||||||||
| Temperature (ºC) | Pressure | Precipitation (cm) | |||||||||||||||